sensor_id;sensor_type;location;lat;lon;timestamp;pressure;altitude;pressure_sealevel;temperature;humidity
76404;BME280;65232;48.358;2.122;2023-02-10T00:00:09;103079.69;;;-0.19;76.38
76404;BME280;65232;48.358;2.122;2023-02-10T00:00:35;103083.19;;;-0.17;76.51
76404;BME280;65232;48.358;2.122;2023-02-10T00:01:22;103084.94;;;-0.22;76.58
76404;BME280;65232;48.358;2.122;2023-02-10T00:01:48;103080.56;;;-0.21;76.42
76404;BME280;65232;48.358;2.122;2023-02-10T00:02:13;103077.06;;;-0.17;76.26
76404;BME280;65232;48.358;2.122;2023-02-10T00:02:39;103080.53;;;-0.14;76.11
76404;BME280;65232;48.358;2.122;2023-02-10T00:03:04;103080.56;;;-0.17;76.20
76404;BME280;65232;48.358;2.122;2023-02-10T00:03:30;103077.91;;;-0.09;76.17
76404;BME280;65232;48.358;2.122;2023-02-10T00:03:56;103083.19;;;-0.15;76.10
76404;BME280;65232;48.358;2.122;2023-02-10T00:04:22;103079.66;;;-0.11;75.90
76404;BME280;65232;48.358;2.122;2023-02-10T00:04:47;103072.63;;;-0.12;76.00
76404;BME280;65232;48.358;2.122;2023-02-10T00:05:13;103077.91;;;-0.12;76.11
76404;BME280;65232;48.358;2.122;2023-02-10T00:05:39;103073.50;;;-0.10;76.07
76404;BME280;65232;48.358;2.122;2023-02-10T00:06:05;103072.63;;;-0.14;76.10
76404;BME280;65232;48.358;2.122;2023-02-10T00:06:31;103078.81;;;-0.21;76.85
76404;BME280;65232;48.358;2.122;2023-02-10T00:06:57;103074.41;;;-0.23;76.85
76404;BME280;65232;48.358;2.122;2023-02-10T00:07:22;103075.31;;;-0.23;76.85
76404;BME280;65232;48.358;2.122;2023-02-10T00:07:48;103077.06;;;-0.20;77.20
76404;BME280;65232;48.358;2.122;2023-02-10T00:08:13;103074.41;;;-0.23;77.04
76404;BME280;65232;48.358;2.122;2023-02-10T00:08:39;103077.06;;;-0.17;76.71
76404;BME280;65232;48.358;2.122;2023-02-10T00:09:05;103074.44;;;-0.16;76.92
76404;BME280;65232;48.358;2.122;2023-02-10T00:09:30;103074.38;;;-0.11;76.68
76404;BME280;65232;48.358;2.122;2023-02-10T00:09:56;103076.16;;;-0.10;76.56
76404;BME280;65232;48.358;2.122;2023-02-10T00:10:21;103078.78;;;-0.12;76.35
76404;BME280;65232;48.358;2.122;2023-02-10T00:10:48;103071.75;;;-0.11;76.63
76404;BME280;65232;48.358;2.122;2023-02-10T00:11:13;103077.91;;;-0.11;76.77
76404;BME280;65232;48.358;2.122;2023-02-10T00:11:41;103082.28;;;-0.07;76.59
76404;BME280;65232;48.358;2.122;2023-02-10T00:12:22;103078.78;;;-0.06;76.79
76404;BME280;65232;48.358;2.122;2023-02-10T00:12:47;103082.28;;;-0.14;76.65
76404;BME280;65232;48.358;2.122;2023-02-10T00:13:12;103084.91;;;-0.11;76.97
76404;BME280;65232;48.358;2.122;2023-02-10T00:13:39;103078.78;;;-0.04;76.98
76404;BME280;65232;48.358;2.122;2023-02-10T00:14:04;103077.91;;;-0.03;76.67
76404;BME280;65232;48.358;2.122;2023-02-10T00:14:30;103084.03;;;-0.01;76.37
76404;BME280;65232;48.358;2.122;2023-02-10T00:14:55;103078.78;;;-0.03;76.44
76404;BME280;65232;48.358;2.122;2023-02-10T00:15:21;103074.41;;;-0.05;76.56
76404;BME280;65232;48.358;2.122;2023-02-10T00:15:46;103080.50;;;0.06;76.37
76404;BME280;65232;48.358;2.122;2023-02-10T00:16:13;103084.88;;;0.06;76.23
76404;BME280;65232;48.358;2.122;2023-02-10T00:16:39;103084.00;;;0.05;76.28
76404;BME280;65232;48.358;2.122;2023-02-10T00:17:05;103078.75;;;0.08;76.38
76404;BME280;65232;48.358;2.122;2023-02-10T00:17:30;103079.63;;;0.06;76.20
76404;BME280;65232;48.358;2.122;2023-02-10T00:17:56;103077.88;;;0.09;76.06
76404;BME280;65232;48.358;2.122;2023-02-10T00:18:21;103080.50;;;0.09;75.96
76404;BME280;65232;48.358;2.122;2023-02-10T00:18:47;103082.25;;;0.10;75.91
76404;BME280;65232;48.358;2.122;2023-02-10T00:19:12;103077.00;;;0.13;75.90
76404;BME280;65232;48.358;2.122;2023-02-10T00:19:37;103079.59;;;0.16;75.71
76404;BME280;65232;48.358;2.122;2023-02-10T00:20:03;103085.72;;;0.18;75.98
76404;BME280;65232;48.358;2.122;2023-02-10T00:20:29;103086.59;;;0.20;75.54
76404;BME280;65232;48.358;2.122;2023-02-10T00:20:55;103083.13;;;0.12;75.64
76404;BME280;65232;48.358;2.122;2023-02-10T00:21:20;103081.38;;;0.10;75.95
76404;BME280;65232;48.358;2.122;2023-02-10T00:21:45;103093.66;;;0.12;75.74
76404;BME280;65232;48.358;2.122;2023-02-10T00:22:11;103083.13;;;0.06;75.94
76404;BME280;65232;48.358;2.122;2023-02-10T00:22:36;103082.25;;;0.13;75.80
76404;BME280;65232;48.358;2.122;2023-02-10T00:23:02;103077.88;;;0.08;76.19
76404;BME280;65232;48.358;2.122;2023-02-10T00:23:29;103079.63;;;0.04;76.57
76404;BME280;65232;48.358;2.122;2023-02-10T00:23:55;103076.13;;;0.05;76.37
76404;BME280;65232;48.358;2.122;2023-02-10T00:24:21;103083.16;;;0.00;76.50
76404;BME280;65232;48.358;2.122;2023-02-10T00:24:47;103083.16;;;-0.02;76.67
76404;BME280;65232;48.358;2.122;2023-02-10T00:25:13;103082.25;;;0.04;76.92
76404;BME280;65232;48.358;2.122;2023-02-10T00:25:38;103072.59;;;0.09;76.80
76404;BME280;65232;48.358;2.122;2023-02-10T00:26:05;103084.84;;;0.16;76.47
76404;BME280;65232;48.358;2.122;2023-02-10T00:26:31;103080.47;;;0.18;76.06
76404;BME280;65232;48.358;2.122;2023-02-10T00:26:57;103081.34;;;0.16;76.01
76404;BME280;65232;48.358;2.122;2023-02-10T00:27:22;103076.06;;;0.19;76.04
76404;BME280;65232;48.358;2.122;2023-02-10T00:27:49;103083.09;;;0.23;76.10
76404;BME280;65232;48.358;2.122;2023-02-10T00:28:14;103083.09;;;0.27;75.68
76404;BME280;65232;48.358;2.122;2023-02-10T00:28:40;103070.81;;;0.25;75.83
76404;BME280;65232;48.358;2.122;2023-02-10T00:29:06;103075.19;;;0.21;75.84
76404;BME280;65232;48.358;2.122;2023-02-10T00:29:31;103082.22;;;0.25;75.69
76404;BME280;65232;48.358;2.122;2023-02-10T00:29:57;103075.19;;;0.23;76.10
76404;BME280;65232;48.358;2.122;2023-02-10T00:30:22;103076.94;;;0.19;75.97
76404;BME280;65232;48.358;2.122;2023-02-10T00:30:48;103079.59;;;0.19;75.91
76404;BME280;65232;48.358;2.122;2023-02-10T00:31:15;103082.22;;;0.21;76.08
76404;BME280;65232;48.358;2.122;2023-02-10T00:31:45;103079.59;;;0.16;76.05
76404;BME280;65232;48.358;2.122;2023-02-10T00:32:11;103077.00;;;0.09;76.23
76404;BME280;65232;48.358;2.122;2023-02-10T00:32:38;103081.38;;;0.11;76.45
76404;BME280;65232;48.358;2.122;2023-02-10T00:33:05;103074.34;;;0.12;76.63
76404;BME280;65232;48.358;2.122;2023-02-10T00:33:31;103083.13;;;0.08;76.66
76404;BME280;65232;48.358;2.122;2023-02-10T00:33:56;103079.63;;;0.06;76.69
76404;BME280;65232;48.358;2.122;2023-02-10T00:34:22;103074.34;;;0.07;76.79
76404;BME280;65232;48.358;2.122;2023-02-10T00:34:47;103069.97;;;0.12;76.81
76404;BME280;65232;48.358;2.122;2023-02-10T00:35:13;103074.34;;;0.15;76.64
76404;BME280;65232;48.358;2.122;2023-02-10T00:35:38;103076.13;;;0.10;76.77
76404;BME280;65232;48.358;2.122;2023-02-10T00:36:05;103072.59;;;0.14;76.72
76404;BME280;65232;48.358;2.122;2023-02-10T00:36:31;103074.31;;;0.18;76.48
76404;BME280;65232;48.358;2.122;2023-02-10T00:36:56;103076.06;;;0.25;76.18
76404;BME280;65232;48.358;2.122;2023-02-10T00:37:22;103073.44;;;0.23;76.20
76404;BME280;65232;48.358;2.122;2023-02-10T00:37:51;103082.22;;;0.16;76.59
76404;BME280;65232;48.358;2.122;2023-02-10T00:38:16;103078.69;;;0.20;76.48
76404;BME280;65232;48.358;2.122;2023-02-10T00:38:45;103077.81;;;0.23;76.52
76404;BME280;65232;48.358;2.122;2023-02-10T00:39:14;103072.56;;;0.21;76.34
76404;BME280;65232;48.358;2.122;2023-02-10T00:39:40;103070.81;;;0.16;76.47
76404;BME280;65232;48.358;2.122;2023-02-10T00:40:05;103076.06;;;0.22;76.49
76404;BME280;65232;48.358;2.122;2023-02-10T00:40:31;103076.94;;;0.22;76.46
76404;BME280;65232;48.358;2.122;2023-02-10T00:41:02;103074.31;;;0.22;76.19
76404;BME280;65232;48.358;2.122;2023-02-10T00:41:28;103069.91;;;0.27;76.30
76404;BME280;65232;48.358;2.122;2023-02-10T00:41:54;103076.91;;;0.30;76.13
76404;BME280;65232;48.358;2.122;2023-02-10T00:42:19;103066.38;;;0.30;76.00
76404;BME280;65232;48.358;2.122;2023-02-10T00:42:45;103074.25;;;0.36;75.83
76404;BME280;65232;48.358;2.122;2023-02-10T00:43:10;103073.38;;;0.42;75.55
76404;BME280;65232;48.358;2.122;2023-02-10T00:43:36;103075.16;;;0.32;75.84
76404;BME280;65232;48.358;2.122;2023-02-10T00:44:01;103071.63;;;0.34;76.07
76404;BME280;65232;48.358;2.122;2023-02-10T00:44:27;103071.63;;;0.34;75.87
76404;BME280;65232;48.358;2.122;2023-02-10T00:44:52;103073.38;;;0.31;75.85
76404;BME280;65232;48.358;2.122;2023-02-10T00:45:18;103069.91;;;0.24;76.41
76404;BME280;65232;48.358;2.122;2023-02-10T00:45:44;103072.56;;;0.29;76.59
76404;BME280;65232;48.358;2.122;2023-02-10T00:46:13;103069.03;;;0.25;76.33
76404;BME280;65232;48.358;2.122;2023-02-10T00:46:39;103065.53;;;0.29;76.49
76404;BME280;65232;48.358;2.122;2023-02-10T00:47:04;103063.72;;;0.33;76.14
76404;BME280;65232;48.358;2.122;2023-02-10T00:47:30;103065.41;;;0.49;75.96
76404;BME280;65232;48.358;2.122;2023-02-10T00:47:56;103061.97;;;0.43;75.89
76404;BME280;65232;48.358;2.122;2023-02-10T00:48:21;103065.44;;;0.46;75.86
76404;BME280;65232;48.358;2.122;2023-02-10T00:48:48;103066.31;;;0.48;75.43
76404;BME280;65232;48.358;2.122;2023-02-10T00:49:14;103062.81;;;0.45;75.48
76404;BME280;65232;48.358;2.122;2023-02-10T00:49:39;103065.47;;;0.37;75.92
76404;BME280;65232;48.358;2.122;2023-02-10T00:50:05;103069.00;;;0.34;76.12
76404;BME280;65232;48.358;2.122;2023-02-10T00:50:30;103064.59;;;0.38;76.12
76404;BME280;65232;48.358;2.122;2023-02-10T00:50:56;103067.25;;;0.37;75.86
76404;BME280;65232;48.358;2.122;2023-02-10T00:51:22;103070.75;;;0.42;76.10
76404;BME280;65232;48.358;2.122;2023-02-10T00:51:47;103069.88;;;0.40;76.32
76404;BME280;65232;48.358;2.122;2023-02-10T00:52:12;103066.38;;;0.36;76.41
76404;BME280;65232;48.358;2.122;2023-02-10T00:52:38;103070.75;;;0.35;76.41
76404;BME280;65232;48.358;2.122;2023-02-10T00:53:03;103068.09;;;0.42;76.39
76404;BME280;65232;48.358;2.122;2023-02-10T00:53:29;103070.72;;;0.43;76.19
76404;BME280;65232;48.358;2.122;2023-02-10T00:53:54;103064.56;;;0.47;76.36
76404;BME280;65232;48.358;2.122;2023-02-10T00:54:20;103061.03;;;0.51;75.89
76404;BME280;65232;48.358;2.122;2023-02-10T00:54:46;103067.19;;;0.50;76.22
76404;BME280;65232;48.358;2.122;2023-02-10T00:55:11;103066.28;;;0.51;76.06
76404;BME280;65232;48.358;2.122;2023-02-10T00:55:37;103062.78;;;0.54;75.99
76404;BME280;65232;48.358;2.122;2023-02-10T00:56:03;103064.53;;;0.55;75.91
76404;BME280;65232;48.358;2.122;2023-02-10T00:56:28;103066.31;;;0.50;76.15
76404;BME280;65232;48.358;2.122;2023-02-10T00:56:56;103069.81;;;0.52;75.98
76404;BME280;65232;48.358;2.122;2023-02-10T00:57:23;103063.66;;;0.50;76.05
76404;BME280;65232;48.358;2.122;2023-02-10T00:57:48;103068.94;;;0.50;76.20
76404;BME280;65232;48.358;2.122;2023-02-10T00:58:15;103074.19;;;0.56;75.91
76404;BME280;65232;48.358;2.122;2023-02-10T00:58:40;103067.16;;;0.59;75.81
76404;BME280;65232;48.358;2.122;2023-02-10T00:59:08;103072.38;;;0.61;75.46
76404;BME280;65232;48.358;2.122;2023-02-10T00:59:34;103069.75;;;0.64;75.49
76404;BME280;65232;48.358;2.122;2023-02-10T01:00:00;103063.59;;;0.66;75.24
76404;BME280;65232;48.358;2.122;2023-02-10T01:00:25;103071.50;;;0.60;75.27
76404;BME280;65232;48.358;2.122;2023-02-10T01:00:53;103073.31;;;0.54;75.64
76404;BME280;65232;48.358;2.122;2023-02-10T01:01:18;103062.81;;;0.45;75.59
76404;BME280;65232;48.358;2.122;2023-02-10T01:01:45;103066.34;;;0.38;76.15
76404;BME280;65232;48.358;2.122;2023-02-10T01:02:11;103069.88;;;0.30;76.42
76404;BME280;65232;48.358;2.122;2023-02-10T01:02:37;103075.16;;;0.32;76.54
76404;BME280;65232;48.358;2.122;2023-02-10T01:03:02;103069.91;;;0.29;76.72
76404;BME280;65232;48.358;2.122;2023-02-10T01:03:28;103069.91;;;0.27;77.05
76404;BME280;65232;48.358;2.122;2023-02-10T01:03:53;103075.19;;;0.27;77.10
76404;BME280;65232;48.358;2.122;2023-02-10T01:04:19;103068.13;;;0.35;76.91
76404;BME280;65232;48.358;2.122;2023-02-10T01:04:45;103072.50;;;0.38;76.96
76404;BME280;65232;48.358;2.122;2023-02-10T01:05:10;103065.47;;;0.40;76.69
76404;BME280;65232;48.358;2.122;2023-02-10T01:05:36;103068.13;;;0.37;76.71
76404;BME280;65232;48.358;2.122;2023-02-10T01:06:02;103071.63;;;0.42;76.77
76404;BME280;65232;48.358;2.122;2023-02-10T01:06:27;103069.88;;;0.40;76.71
76404;BME280;65232;48.358;2.122;2023-02-10T01:06:53;103074.22;;;0.45;76.57
76404;BME280;65232;48.358;2.122;2023-02-10T01:07:18;103075.97;;;0.46;76.37
76404;BME280;65232;48.358;2.122;2023-02-10T01:07:44;103072.44;;;0.46;76.42
76404;BME280;65232;48.358;2.122;2023-02-10T01:08:09;103066.31;;;0.45;76.31
76404;BME280;65232;48.358;2.122;2023-02-10T01:08:35;103073.31;;;0.48;76.46
76404;BME280;65232;48.358;2.122;2023-02-10T01:09:00;103069.88;;;0.41;76.48
76404;BME280;65232;48.358;2.122;2023-02-10T01:09:25;103068.06;;;0.46;76.32
76404;BME280;65232;48.358;2.122;2023-02-10T01:09:51;103074.19;;;0.53;75.93
76404;BME280;65232;48.358;2.122;2023-02-10T01:10:16;103070.69;;;0.54;76.33
76404;BME280;65232;48.358;2.122;2023-02-10T01:10:44;103073.31;;;0.52;76.25
76404;BME280;65232;48.358;2.122;2023-02-10T01:11:11;103073.31;;;0.49;76.38
76404;BME280;65232;48.358;2.122;2023-02-10T01:11:38;103069.81;;;0.55;76.26
76404;BME280;65232;48.358;2.122;2023-02-10T01:12:03;103068.88;;;0.60;75.88
76404;BME280;65232;48.358;2.122;2023-02-10T01:12:29;103072.38;;;0.62;75.90
76404;BME280;65232;48.358;2.122;2023-02-10T01:12:54;103072.34;;;0.72;75.35
76404;BME280;65232;48.358;2.122;2023-02-10T01:13:20;103062.69;;;0.74;75.45
76404;BME280;65232;48.358;2.122;2023-02-10T01:13:45;103072.34;;;0.70;75.30
76404;BME280;65232;48.358;2.122;2023-02-10T01:14:10;103074.06;;;0.76;75.20
76404;BME280;65232;48.358;2.122;2023-02-10T01:14:36;103060.94;;;0.71;75.03
76404;BME280;65232;48.358;2.122;2023-02-10T01:15:02;103070.59;;;0.69;75.42
76404;BME280;65232;48.358;2.122;2023-02-10T01:15:27;103065.31;;;0.70;75.41
76404;BME280;65232;48.358;2.122;2023-02-10T01:15:53;103071.47;;;0.73;75.42
76404;BME280;65232;48.358;2.122;2023-02-10T01:16:19;103070.59;;;0.69;75.37
76404;BME280;65232;48.358;2.122;2023-02-10T01:16:45;103071.47;;;0.73;75.45
76404;BME280;65232;48.358;2.122;2023-02-10T01:17:10;103067.91;;;0.77;75.28
76404;BME280;65232;48.358;2.122;2023-02-10T01:17:36;103077.59;;;0.75;75.48
76404;BME280;65232;48.358;2.122;2023-02-10T01:18:02;103074.13;;;0.69;75.72
76404;BME280;65232;48.358;2.122;2023-02-10T01:18:27;103070.63;;;0.64;75.79
76404;BME280;65232;48.358;2.122;2023-02-10T01:18:53;103076.78;;;0.60;75.98
76404;BME280;65232;48.358;2.122;2023-02-10T01:19:19;103075.06;;;0.58;76.50
76404;BME280;65232;48.358;2.122;2023-02-10T01:19:46;103079.44;;;0.57;77.00
76404;BME280;65232;48.358;2.122;2023-02-10T01:20:15;103074.13;;;0.62;76.42
76404;BME280;65232;48.358;2.122;2023-02-10T01:20:41;103075.06;;;0.55;76.82
76404;BME280;65232;48.358;2.122;2023-02-10T01:21:13;103067.16;;;0.56;76.71
76404;BME280;65232;48.358;2.122;2023-02-10T01:21:38;103070.66;;;0.58;76.72
76404;BME280;65232;48.358;2.122;2023-02-10T01:22:05;103075.00;;;0.61;76.73
76404;BME280;65232;48.358;2.122;2023-02-10T01:22:35;103075.88;;;0.67;76.34
76404;BME280;65232;48.358;2.122;2023-02-10T01:23:00;103082.91;;;0.62;76.51
76404;BME280;65232;48.358;2.122;2023-02-10T01:23:26;103071.50;;;0.62;76.36
76404;BME280;65232;48.358;2.122;2023-02-10T01:23:52;103081.16;;;0.63;76.44
76404;BME280;65232;48.358;2.122;2023-02-10T01:24:17;103084.66;;;0.71;76.09
76404;BME280;65232;48.358;2.122;2023-02-10T01:24:43;103080.22;;;0.75;76.13
76404;BME280;65232;48.358;2.122;2023-02-10T01:25:08;103075.84;;;0.74;75.96
76404;BME280;65232;48.358;2.122;2023-02-10T01:25:35;103075.00;;;0.68;76.08
76404;BME280;65232;48.358;2.122;2023-02-10T01:26:01;103074.94;;;0.75;75.87
76404;BME280;65232;48.358;2.122;2023-02-10T01:26:26;103073.16;;;0.80;75.62
76404;BME280;65232;48.358;2.122;2023-02-10T01:26:52;103074.09;;;0.74;75.52
76404;BME280;65232;48.358;2.122;2023-02-10T01:27:17;103079.38;;;0.71;75.67
76404;BME280;65232;48.358;2.122;2023-02-10T01:27:43;103075.88;;;0.70;75.78
76404;BME280;65232;48.358;2.122;2023-02-10T01:28:09;103075.00;;;0.65;75.78
76404;BME280;65232;48.358;2.122;2023-02-10T01:28:38;103075.88;;;0.64;76.04
76404;BME280;65232;48.358;2.122;2023-02-10T01:29:04;103071.50;;;0.66;75.93
76404;BME280;65232;48.358;2.122;2023-02-10T01:29:30;103075.88;;;0.64;76.19
76404;BME280;65232;48.358;2.122;2023-02-10T01:29:55;103067.03;;;0.75;75.97
76404;BME280;65232;48.358;2.122;2023-02-10T01:30:21;103077.56;;;0.79;75.86
76404;BME280;65232;48.358;2.122;2023-02-10T01:30:46;103072.34;;;0.72;76.12
76404;BME280;65232;48.358;2.122;2023-02-10T01:31:14;103067.97;;;0.70;75.77
76404;BME280;65232;48.358;2.122;2023-02-10T01:31:40;103074.09;;;0.71;75.91
76404;BME280;65232;48.358;2.122;2023-02-10T01:32:06;103065.34;;;0.66;76.05
76404;BME280;65232;48.358;2.122;2023-02-10T01:32:32;103058.31;;;0.71;75.93
76404;BME280;65232;48.358;2.122;2023-02-10T01:32:57;103059.13;;;0.81;76.09
76404;BME280;65232;48.358;2.122;2023-02-10T01:33:23;103059.13;;;0.75;75.77
76404;BME280;65232;48.358;2.122;2023-02-10T01:33:53;103065.34;;;0.66;76.29
76404;BME280;65232;48.358;2.122;2023-02-10T01:34:18;103070.63;;;0.66;76.41
76404;BME280;65232;48.358;2.122;2023-02-10T01:34:44;103068.84;;;0.71;76.44
76404;BME280;65232;48.358;2.122;2023-02-10T01:35:10;103062.69;;;0.72;76.30
76404;BME280;65232;48.358;2.122;2023-02-10T01:35:37;103071.47;;;0.71;76.41
76404;BME280;65232;48.358;2.122;2023-02-10T01:36:09;103056.50;;;0.78;76.44
76404;BME280;65232;48.358;2.122;2023-02-10T01:36:35;103060.88;;;0.83;76.26
76404;BME280;65232;48.358;2.122;2023-02-10T01:37:00;103067.00;;;0.88;75.90
76404;BME280;65232;48.358;2.122;2023-02-10T01:37:26;103066.06;;;0.94;76.06
76404;BME280;65232;48.358;2.122;2023-02-10T01:37:52;103066.94;;;0.90;76.20
76404;BME280;65232;48.358;2.122;2023-02-10T01:38:17;103066.06;;;0.92;76.26
76404;BME280;65232;48.358;2.122;2023-02-10T01:38:43;103064.38;;;0.82;76.26
76404;BME280;65232;48.358;2.122;2023-02-10T01:39:08;103074.06;;;0.79;76.45
76404;BME280;65232;48.358;2.122;2023-02-10T01:39:34;103078.44;;;0.80;76.23
76404;BME280;65232;48.358;2.122;2023-02-10T01:40:00;103078.44;;;0.77;76.71
76404;BME280;65232;48.358;2.122;2023-02-10T01:40:26;103076.69;;;0.76;76.88
76404;BME280;65232;48.358;2.122;2023-02-10T01:40:51;103074.09;;;0.73;76.79
76404;BME280;65232;48.358;2.122;2023-02-10T01:41:20;103076.75;;;0.71;76.86
76404;BME280;65232;48.358;2.122;2023-02-10T01:41:46;103073.25;;;0.64;76.75
76404;BME280;65232;48.358;2.122;2023-02-10T01:42:15;103078.53;;;0.61;76.97
76404;BME280;65232;48.358;2.122;2023-02-10T01:42:41;103069.78;;;0.56;76.86
76404;BME280;65232;48.358;2.122;2023-02-10T01:43:13;103069.78;;;0.58;76.87
76404;BME280;65232;48.358;2.122;2023-02-10T01:45:32;103076.75;;;0.73;76.57
76404;BME280;65232;48.358;2.122;2023-02-10T01:45:58;103076.69;;;0.76;76.22
76404;BME280;65232;48.358;2.122;2023-02-10T01:46:28;103075.00;;;0.72;76.55
76404;BME280;65232;48.358;2.122;2023-02-10T01:46:55;103075.00;;;0.67;76.61
76404;BME280;65232;48.358;2.122;2023-02-10T01:47:21;103080.28;;;0.67;76.83
76404;BME280;65232;48.358;2.122;2023-02-10T01:47:49;103074.09;;;0.73;76.84
76404;BME280;65232;48.358;2.122;2023-02-10T01:48:16;103073.16;;;0.80;76.42
76404;BME280;65232;48.358;2.122;2023-02-10T01:48:41;103069.66;;;0.82;76.36
76404;BME280;65232;48.358;2.122;2023-02-10T01:49:10;103066.13;;;0.86;76.63
76404;BME280;65232;48.358;2.122;2023-02-10T01:49:43;103072.28;;;0.87;76.26
76404;BME280;65232;48.358;2.122;2023-02-10T01:50:12;103081.06;;;0.83;76.29
76404;BME280;65232;48.358;2.122;2023-02-10T01:50:41;103080.19;;;0.79;76.45
76404;BME280;65232;48.358;2.122;2023-02-10T01:51:08;103077.56;;;0.78;76.48
76404;BME280;65232;48.358;2.122;2023-02-10T01:51:59;103076.69;;;0.80;76.41
76404;BME280;65232;48.358;2.122;2023-02-10T01:52:24;103067.91;;;0.80;76.55
76404;BME280;65232;48.358;2.122;2023-02-10T01:52:55;103068.78;;;0.83;76.31
76404;BME280;65232;48.358;2.122;2023-02-10T01:53:23;103066.16;;;0.76;76.29
76404;BME280;65232;48.358;2.122;2023-02-10T01:53:50;103074.06;;;0.77;76.42
76404;BME280;65232;48.358;2.122;2023-02-10T01:54:20;103075.84;;;0.74;76.53
76404;BME280;65232;48.358;2.122;2023-02-10T01:54:51;103069.66;;;0.81;76.60
76404;BME280;65232;48.358;2.122;2023-02-10T01:55:23;103072.25;;;0.88;76.59
76404;BME280;65232;48.358;2.122;2023-02-10T01:55:53;103071.31;;;1.00;76.25
76404;BME280;65232;48.358;2.122;2023-02-10T01:56:20;103066.00;;;1.03;75.98
76404;BME280;65232;48.358;2.122;2023-02-10T01:56:46;103070.38;;;1.04;75.92
76404;BME280;65232;48.358;2.122;2023-02-10T01:57:13;103065.09;;;1.04;76.01
76404;BME280;65232;48.358;2.122;2023-02-10T01:57:40;103062.53;;;0.99;76.17
76404;BME280;65232;48.358;2.122;2023-02-10T01:58:09;103066.94;;;0.96;76.27
76404;BME280;65232;48.358;2.122;2023-02-10T01:58:36;103063.41;;;1.00;76.26
76404;BME280;65232;48.358;2.122;2023-02-10T01:59:03;103066.91;;;1.02;76.13
76404;BME280;65232;48.358;2.122;2023-02-10T01:59:30;103073.00;;;1.04;76.21
76404;BME280;65232;48.358;2.122;2023-02-10T01:59:58;103069.53;;;1.02;76.16
76404;BME280;65232;48.358;2.122;2023-02-10T02:00:25;103066.00;;;1.03;76.21
76404;BME280;65232;48.358;2.122;2023-02-10T02:00:51;103069.53;;;1.03;76.15
76404;BME280;65232;48.358;2.122;2023-02-10T02:01:17;103067.78;;;1.02;76.03
76404;BME280;65232;48.358;2.122;2023-02-10T02:01:43;103066.03;;;0.97;76.43
76404;BME280;65232;48.358;2.122;2023-02-10T02:02:10;103062.47;;;1.04;76.08
76404;BME280;65232;48.358;2.122;2023-02-10T02:02:36;103067.78;;;0.99;76.63
76404;BME280;65232;48.358;2.122;2023-02-10T02:03:04;103067.78;;;0.99;76.37
76404;BME280;65232;48.358;2.122;2023-02-10T02:03:30;103062.53;;;0.98;76.40
76404;BME280;65232;48.358;2.122;2023-02-10T02:03:56;103067.78;;;0.99;76.39
76404;BME280;65232;48.358;2.122;2023-02-10T02:04:22;103060.75;;;1.03;76.32
76404;BME280;65232;48.358;2.122;2023-02-10T02:04:53;103066.91;;;1.02;76.18
76404;BME280;65232;48.358;2.122;2023-02-10T02:05:29;103066.03;;;1.01;76.23
76404;BME280;65232;48.358;2.122;2023-02-10T02:05:55;103067.81;;;0.96;76.28
76404;BME280;65232;48.358;2.122;2023-02-10T02:06:21;103065.19;;;0.92;76.66
76404;BME280;65232;48.358;2.122;2023-02-10T02:06:48;103066.03;;;0.97;76.82
76404;BME280;65232;48.358;2.122;2023-02-10T02:07:14;103066.91;;;0.99;76.28
76404;BME280;65232;48.358;2.122;2023-02-10T02:07:40;103068.66;;;1.00;76.47
76404;BME280;65232;48.358;2.122;2023-02-10T02:08:15;103073.94;;;1.01;76.31
76404;BME280;65232;48.358;2.122;2023-02-10T02:08:41;103068.66;;;1.01;76.32
76404;BME280;65232;48.358;2.122;2023-02-10T02:09:07;103067.72;;;1.07;76.11
76404;BME280;65232;48.358;2.122;2023-02-10T02:09:33;103066.00;;;1.03;75.98
76404;BME280;65232;48.358;2.122;2023-02-10T02:09:59;103067.72;;;1.07;76.03
76404;BME280;65232;48.358;2.122;2023-02-10T02:10:39;103073.94;;;0.97;76.28
76404;BME280;65232;48.358;2.122;2023-02-10T02:11:52;103073.97;;;0.94;76.20
76404;BME280;65232;48.358;2.122;2023-02-10T02:13:11;103072.19;;;0.99;76.56
76404;BME280;65232;48.358;2.122;2023-02-10T02:16:09;103068.56;;;1.12;76.11
76404;BME280;65232;48.358;2.122;2023-02-10T02:16:57;103067.69;;;1.13;76.09
76404;BME280;65232;48.358;2.122;2023-02-10T02:17:52;103073.81;;;1.17;76.15
76404;BME280;65232;48.358;2.122;2023-02-10T02:18:36;103071.16;;;1.20;75.96
76404;BME280;65232;48.358;2.122;2023-02-10T02:21:48;103068.50;;;1.23;75.70
76404;BME280;65232;48.358;2.122;2023-02-10T02:24:48;103077.22;;;1.31;75.83
76404;BME280;65232;48.358;2.122;2023-02-10T02:31:50;103066.91;;;1.03;77.07
76404;BME280;65232;48.358;2.122;2023-02-10T02:32:22;103072.09;;;1.10;76.66
76404;BME280;65232;48.358;2.122;2023-02-10T02:32:54;103069.44;;;1.17;76.67
76404;BME280;65232;48.358;2.122;2023-02-10T02:33:43;103067.63;;;1.19;76.46
76404;BME280;65232;48.358;2.122;2023-02-10T02:34:17;103066.81;;;1.11;76.97
76404;BME280;65232;48.358;2.122;2023-02-10T02:35:27;103067.72;;;1.07;76.91
76404;BME280;65232;48.358;2.122;2023-02-10T02:36:01;103067.78;;;1.01;77.36
76404;BME280;65232;48.358;2.122;2023-02-10T02:36:37;103073.06;;;1.01;77.41
76404;BME280;65232;48.358;2.122;2023-02-10T02:37:21;103077.38;;;1.06;77.46
76404;BME280;65232;48.358;2.122;2023-02-10T02:37:48;103065.94;;;1.09;77.45
76404;BME280;65232;48.358;2.122;2023-02-10T02:38:14;103068.53;;;1.18;77.08
76404;BME280;65232;48.358;2.122;2023-02-10T02:38:41;103065.84;;;1.23;77.02
76404;BME280;65232;48.358;2.122;2023-02-10T02:39:07;103068.53;;;1.18;76.83
76404;BME280;65232;48.358;2.122;2023-02-10T02:39:33;103068.56;;;1.17;77.01
76404;BME280;65232;48.358;2.122;2023-02-10T02:39:58;103065.00;;;1.19;76.91
76404;BME280;65232;48.358;2.122;2023-02-10T02:40:24;103061.47;;;1.20;76.97
76404;BME280;65232;48.358;2.122;2023-02-10T02:40:50;103060.63;;;1.18;76.67
76404;BME280;65232;48.358;2.122;2023-02-10T02:41:23;103057.97;;;1.20;76.64
76404;BME280;65232;48.358;2.122;2023-02-10T02:42:19;103064.16;;;1.16;76.68